Time;durP1;ratioP1;P1;durP2;ratioP2;P2;SDS_P1;SDS_P2;PMS_P1;PMS_P2;Temp;Humidity;BMP_temperature;BMP_pressure;BME280_temperature;BME280_humidity;BME280_pressure;Samples;Min_cycle;Max_cycle;Signal;HPM_P1;HPM_P2
2023/12/12 06:03:17;;;;;;;9.82;1.63;;;;;;;;;;5805002;23;20365;-82
2023/12/12 06:05:43;;;;;;;6.68;1.67;;;;;;;;;;4917497;29;20067;-82
2023/12/12 06:08:08;;;;;;;6.85;1.25;;;;;;;;;;4917502;29;20461;-82
2023/12/12 06:10:33;;;;;;;10.90;1.90;;;;;;;;;;4916069;29;20052;-82
2023/12/12 06:12:59;;;;;;;8.32;1.50;;;;;;;;;;4920787;29;20012;-82
2023/12/12 06:15:24;;;;;;;7.80;1.20;;;;;;;;;;4918481;29;20394;-80
2023/12/12 06:17:49;;;;;;;10.20;1.40;;;;;;;;;;4915998;29;20472;-80
2023/12/12 06:20:14;;;;;;;12.48;2.05;;;;;;;;;;4923180;29;20349;-81
2023/12/12 06:22:40;;;;;;;7.95;1.58;;;;;;;;;;4913774;29;20024;-81
2023/12/12 06:25:06;;;;;;;15.15;1.80;;;;;;;;;;4923847;29;20404;-81
2023/12/12 06:27:31;;;;;;;16.35;1.98;;;;;;;;;;4917320;29;20016;-81
2023/12/12 06:29:56;;;;;;;8.07;1.98;;;;;;;;;;4925220;29;20485;-81
2023/12/12 06:32:22;;;;;;;14.23;1.98;;;;;;;;;;4917695;29;20023;-82
2023/12/12 06:34:47;;;;;;;10.98;2.38;;;;;;;;;;4916277;29;20024;-82
2023/12/12 06:37:12;;;;;;;18.52;2.50;;;;;;;;;;4917259;29;20056;-82
2023/12/12 06:39:38;;;;;;;14.23;2.95;;;;;;;;;;4915627;29;20031;-81
2023/12/12 06:42:04;;;;;;;12.05;1.67;;;;;;;;;;4916468;29;20017;-81
2023/12/12 06:44:29;;;;;;;8.25;2.08;;;;;;;;;;4931459;29;20031;-81
2023/12/12 06:46:54;;;;;;;8.93;1.65;;;;;;;;;;4915658;29;20016;-81
2023/12/12 06:49:19;;;;;;;10.45;2.63;;;;;;;;;;4916117;29;20028;-81
2023/12/12 06:51:44;;;;;;;8.00;2.58;;;;;;;;;;4915332;29;20031;-81
2023/12/12 06:54:10;;;;;;;9.95;1.90;;;;;;;;;;4924326;29;20106;-81
2023/12/12 06:56:35;;;;;;;4.88;1.48;;;;;;;;;;4919979;29;20023;-81
2023/12/12 06:59:00;;;;;;;9.65;2.00;;;;;;;;;;4913464;29;20120;-81
2023/12/12 07:01:26;;;;;;;11.90;1.77;;;;;;;;;;4914187;29;20039;-81
2023/12/12 07:03:51;;;;;;;6.03;1.48;;;;;;;;;;4915953;29;20221;-81
2023/12/12 07:06:20;;;;;;;15.25;2.20;;;;;;;;;;4913725;29;20051;-83
2023/12/12 07:08:45;;;;;;;9.18;2.05;;;;;;;;;;4930677;29;20024;-81
2023/12/12 07:11:11;;;;;;;10.98;1.95;;;;;;;;;;4920219;29;20395;-82
2023/12/12 07:13:37;;;;;;;11.25;1.80;;;;;;;;;;4919537;29;20031;-79
2023/12/12 07:16:02;;;;;;;8.38;1.65;;;;;;;;;;4920191;29;20023;-79
2023/12/12 07:18:27;;;;;;;9.73;1.58;;;;;;;;;;4924313;29;20115;-79
2023/12/12 07:20:53;;;;;;;6.88;1.67;;;;;;;;;;4923629;29;20459;-79
2023/12/12 07:23:19;;;;;;;9.23;1.60;;;;;;;;;;4924195;29;20040;-79
2023/12/12 07:25:45;;;;;;;9.30;1.48;;;;;;;;;;4913305;29;20028;-79
2023/12/12 07:28:11;;;;;;;16.75;2.88;;;;;;;;;;4920014;29;20111;-78
2023/12/12 07:30:36;;;;;;;8.20;1.80;;;;;;;;;;4920424;29;20681;-78
2023/12/12 07:33:01;;;;;;;8.15;2.40;;;;;;;;;;4919185;29;20035;-78
2023/12/12 07:35:26;;;;;;;7.82;1.58;;;;;;;;;;4930416;29;20028;-78
2023/12/12 07:37:51;;;;;;;9.25;1.50;;;;;;;;;;4914510;29;20076;-78
2023/12/12 07:40:17;;;;;;;18.35;2.75;;;;;;;;;;4921313;29;20052;-78
2023/12/12 07:42:42;;;;;;;6.63;1.40;;;;;;;;;;4914230;29;20035;-78
2023/12/12 07:45:08;;;;;;;6.18;1.60;;;;;;;;;;4911801;29;20468;-78
2023/12/12 07:47:33;;;;;;;5.93;1.25;;;;;;;;;;4911721;29;20324;-78
2023/12/12 07:49:59;;;;;;;7.38;1.90;;;;;;;;;;4912696;29;20028;-78
2023/12/12 07:52:25;;;;;;;11.52;2.17;;;;;;;;;;4913859;29;20428;-78
2023/12/12 07:54:51;;;;;;;10.15;1.92;;;;;;;;;;4915162;29;20027;-79
2023/12/12 07:57:16;;;;;;;18.25;1.98;;;;;;;;;;4910086;29;20031;-78
2023/12/12 07:59:42;;;;;;;8.40;2.15;;;;;;;;;;4914525;29;20032;-78
2023/12/12 08:02:07;;;;;;;12.45;2.22;;;;;;;;;;4918768;29;20076;-78
2023/12/12 08:04:32;;;;;;;14.65;1.52;;;;;;;;;;4917416;29;20036;-78
2023/12/12 08:06:58;;;;;;;8.73;1.77;;;;;;;;;;4900575;29;20040;-79
2023/12/12 08:09:23;;;;;;;10.80;2.10;;;;;;;;;;4899612;29;20142;-79
2023/12/12 08:11:48;;;;;;;12.07;1.50;;;;;;;;;;4899124;29;20104;-79
2023/12/12 08:14:13;;;;;;;8.68;1.48;;;;;;;;;;4930350;29;20054;-78
2023/12/12 08:16:39;;;;;;;4.43;1.30;;;;;;;;;;4918372;29;20064;-78
2023/12/12 08:19:04;;;;;;;6.53;1.13;;;;;;;;;;4921426;29;20024;-80
2023/12/12 08:21:30;;;;;;;4.20;1.05;;;;;;;;;;4923733;29;20051;-79
2023/12/12 08:23:55;;;;;;;7.25;1.65;;;;;;;;;;4918236;29;20058;-79
2023/12/12 08:26:24;;;;;;;11.57;1.40;;;;;;;;;;4932634;29;20448;-79
2023/12/12 08:28:49;;;;;;;2.20;0.73;;;;;;;;;;4919379;29;20055;-79
2023/12/12 08:31:14;;;;;;;4.43;1.40;;;;;;;;;;4908946;29;20052;-79
2023/12/12 08:33:40;;;;;;;1.40;0.52;;;;;;;;;;4924698;29;20043;-79
2023/12/12 08:36:05;;;;;;;6.25;1.13;;;;;;;;;;4919868;29;20170;-79
2023/12/12 08:38:31;;;;;;;8.70;1.55;;;;;;;;;;4920836;29;20106;-79
2023/12/12 08:40:56;;;;;;;5.50;1.35;;;;;;;;;;4923478;29;20054;-79
2023/12/12 08:43:22;;;;;;;10.18;1.55;;;;;;;;;;4931738;29;20024;-78
2023/12/12 08:45:47;;;;;;;8.98;1.40;;;;;;;;;;4920483;29;20048;-79
2023/12/12 08:48:13;;;;;;;5.43;1.48;;;;;;;;;;4920093;29;20035;-79
2023/12/12 08:50:38;;;;;;;10.02;1.73;;;;;;;;;;4918286;29;20024;-79
2023/12/12 08:53:03;;;;;;;3.67;1.30;;;;;;;;;;4918688;29;20055;-78
2023/12/12 08:55:29;;;;;;;6.28;1.42;;;;;;;;;;4916845;29;20027;-79
2023/12/12 08:57:54;;;;;;;5.55;1.27;;;;;;;;;;4916383;29;20438;-79
2023/12/12 09:00:19;;;;;;;3.03;1.10;;;;;;;;;;4933526;29;20424;-78
2023/12/12 09:02:44;;;;;;;4.38;1.10;;;;;;;;;;4932638;29;20043;-79
2023/12/12 09:05:10;;;;;;;10.73;2.00;;;;;;;;;;4917926;29;20035;-79
2023/12/12 09:07:35;;;;;;;2.70;1.17;;;;;;;;;;4918446;29;20024;-79
2023/12/12 09:10:02;;;;;;;11.80;1.60;;;;;;;;;;4916704;29;20631;-79
2023/12/12 09:12:27;;;;;;;3.65;0.88;;;;;;;;;;4932075;29;20020;-78
2023/12/12 09:14:52;;;;;;;4.65;1.40;;;;;;;;;;4916209;29;20111;-79
2023/12/12 09:17:18;;;;;;;7.90;1.35;;;;;;;;;;4916417;29;20032;-79
2023/12/12 09:19:43;;;;;;;8.07;1.17;;;;;;;;;;4918630;29;20032;-78
2023/12/12 09:22:08;;;;;;;3.97;0.82;;;;;;;;;;4919929;29;20115;-79
2023/12/12 09:24:33;;;;;;;9.07;1.10;;;;;;;;;;4916427;29;20474;-79
2023/12/12 09:26:59;;;;;;;3.25;0.85;;;;;;;;;;4932643;29;20034;-79
2023/12/12 09:29:24;;;;;;;9.63;1.40;;;;;;;;;;4921208;29;20024;-79
2023/12/12 09:31:49;;;;;;;1.77;0.55;;;;;;;;;;4913987;29;20111;-79
2023/12/12 09:34:14;;;;;;;6.38;1.52;;;;;;;;;;4914708;29;20020;-79
2023/12/12 09:36:40;;;;;;;8.68;1.30;;;;;;;;;;4918886;29;20039;-80
2023/12/12 09:39:07;;;;;;;2.97;0.80;;;;;;;;;;4917494;29;20044;-79
2023/12/12 09:41:32;;;;;;;6.13;1.08;;;;;;;;;;4914446;29;20024;-79
2023/12/12 09:43:59;;;;;;;4.57;1.02;;;;;;;;;;4912716;29;20196;-79
2023/12/12 09:46:24;;;;;;;7.40;0.98;;;;;;;;;;4932334;29;20032;-79
2023/12/12 09:48:49;;;;;;;7.03;1.30;;;;;;;;;;4923192;29;20039;-79
2023/12/12 09:51:15;;;;;;;5.47;1.05;;;;;;;;;;4921178;29;20648;-79
2023/12/12 09:53:47;;;;;;;6.00;0.93;;;;;;;;;;4918725;29;20020;-79
2023/12/12 09:56:12;;;;;;;;;;;;;;;;;;4924039;29;20122;-79
2023/12/12 09:58:37;;;;;;;5.28;1.00;;;;;;;;;;4916036;29;19978;-79
2023/12/12 10:01:03;;;;;;;3.20;0.70;;;;;;;;;;4922083;29;20662;-79
2023/12/12 10:03:29;;;;;;;7.22;1.73;;;;;;;;;;4910572;29;20432;-79
2023/12/12 10:05:56;;;;;;;5.13;1.17;;;;;;;;;;4916012;29;20376;-79
2023/12/12 10:08:22;;;;;;;3.42;1.00;;;;;;;;;;4931096;29;20463;-78
2023/12/12 10:10:50;;;;;;;4.97;0.80;;;;;;;;;;4918381;29;20083;-80
2023/12/12 10:13:15;;;;;;;3.60;0.88;;;;;;;;;;4915274;29;20032;-79
2023/12/12 10:15:41;;;;;;;1.05;0.60;;;;;;;;;;4916441;29;20020;-79
2023/12/12 10:18:06;;;;;;;5.80;1.10;;;;;;;;;;4922096;29;20026;-79
2023/12/12 10:20:31;;;;;;;3.22;0.80;;;;;;;;;;4931926;29;20023;-79
2023/12/12 10:22:58;;;;;;;4.78;1.15;;;;;;;;;;4914514;29;20024;-79
2023/12/12 10:25:23;;;;;;;2.92;0.75;;;;;;;;;;4923984;29;20031;-79
2023/12/12 10:27:51;;;;;;;2.13;0.80;;;;;;;;;;4914981;29;20023;-80
2023/12/12 10:30:16;;;;;;;7.18;1.30;;;;;;;;;;4916031;29;20024;-80
2023/12/12 10:32:41;;;;;;;4.38;1.15;;;;;;;;;;4912935;29;20026;-79
2023/12/12 10:35:08;;;;;;;6.13;1.20;;;;;;;;;;4915067;29;20016;-79
2023/12/12 10:37:34;;;;;;;6.47;1.27;;;;;;;;;;4915618;29;20023;-79
2023/12/12 10:40:19;;;;;;;1.73;0.75;;;;;;;;;;4914966;29;20012;-80
2023/12/12 10:42:44;;;;;;;5.95;0.90;;;;;;;;;;4916084;29;20035;-79
2023/12/12 10:45:14;;;;;;;5.97;1.00;;;;;;;;;;4914358;29;20036;-79
2023/12/12 10:47:40;;;;;;;4.10;1.02;;;;;;;;;;4915729;29;20034;-80
2023/12/12 10:50:09;;;;;;;1.60;0.80;;;;;;;;;;4915420;29;20020;-80
2023/12/12 10:52:35;;;;;;;2.40;0.93;;;;;;;;;;4919972;29;20051;-79
2023/12/12 10:55:01;;;;;;;3.80;0.47;;;;;;;;;;4920742;29;20020;-80
2023/12/12 10:57:29;;;;;;;5.60;0.82;;;;;;;;;;4914233;29;20123;-79
2023/12/12 10:59:54;;;;;;;5.30;0.70;;;;;;;;;;4915069;29;20020;-79
2023/12/12 11:02:20;;;;;;;4.80;0.70;;;;;;;;;;4914988;29;20407;-79
2023/12/12 11:04:46;;;;;;;4.25;0.82;;;;;;;;;;4914045;29;20032;-80
2023/12/12 11:07:11;;;;;;;3.63;1.38;;;;;;;;;;4932660;29;20115;-80
2023/12/12 11:09:37;;;;;;;6.53;0.75;;;;;;;;;;4916782;29;20107;-79
2023/12/12 11:12:03;;;;;;;3.47;0.90;;;;;;;;;;4922585;29;20039;-80
2023/12/12 11:14:28;;;;;;;6.47;0.90;;;;;;;;;;4933607;29;20016;-80
2023/12/12 11:16:56;;;;;;;4.70;1.15;;;;;;;;;;4919819;29;20481;-80
2023/12/12 11:19:24;;;;;;;2.38;0.77;;;;;;;;;;4918673;29;20108;-80
2023/12/12 11:21:49;;;;;;;1.95;0.45;;;;;;;;;;4917960;29;20111;-80
2023/12/12 11:24:19;;;;;;;1.15;0.50;;;;;;;;;;4919292;29;20020;-80
2023/12/12 11:26:49;;;;;;;2.45;0.80;;;;;;;;;;4935461;29;20047;-81
2023/12/12 11:29:15;;;;;;;7.93;0.93;;;;;;;;;;4924736;29;20032;-81
2023/12/12 11:31:59;;;;;;;4.05;1.00;;;;;;;;;;4916307;29;20024;-80
2023/12/12 11:34:24;;;;;;;0.38;0.22;;;;;;;;;;4921071;29;20020;-81
2023/12/12 11:36:51;;;;;;;4.28;1.40;;;;;;;;;;4928564;29;20016;-81
2023/12/12 11:39:37;;;;;;;3.65;0.73;;;;;;;;;;4927011;29;20395;-80
2023/12/12 11:42:03;;;;;;;1.40;0.70;;;;;;;;;;4920842;29;20028;-80
2023/12/12 11:44:41;;;;;;;1.73;0.85;;;;;;;;;;4920253;29;20020;-81
2023/12/12 11:47:09;;;;;;;1.70;0.90;;;;;;;;;;4923785;29;20027;-80
2023/12/12 11:49:34;;;;;;;3.38;1.05;;;;;;;;;;4921038;29;20031;-80
2023/12/12 11:52:00;;;;;;;6.55;0.88;;;;;;;;;;4917228;29;20032;-80
2023/12/12 11:54:25;;;;;;;1.70;0.90;;;;;;;;;;4915422;29;20044;-79
2023/12/12 11:56:56;;;;;;;7.72;1.08;;;;;;;;;;4915071;29;20020;-80
2023/12/12 11:59:22;;;;;;;4.65;1.08;;;;;;;;;;4917227;29;20020;-80
2023/12/12 12:01:47;;;;;;;6.45;0.70;;;;;;;;;;4915455;29;20035;-80
2023/12/12 12:04:12;;;;;;;3.95;1.25;;;;;;;;;;4915902;29;20036;-80
2023/12/12 12:06:38;;;;;;;4.47;1.45;;;;;;;;;;4920057;29;20036;-80
2023/12/12 12:09:05;;;;;;;5.38;1.10;;;;;;;;;;4914791;29;20124;-80
2023/12/12 12:11:40;;;;;;;1.05;0.70;;;;;;;;;;4915024;29;20069;-80
2023/12/12 12:14:05;;;;;;;2.08;1.20;;;;;;;;;;4912627;29;20020;-80
2023/12/12 12:16:30;;;;;;;3.92;1.20;;;;;;;;;;4915150;29;20020;-80
2023/12/12 12:18:56;;;;;;;3.85;0.90;;;;;;;;;;4919322;29;20028;-80
2023/12/12 12:21:27;;;;;;;1.85;0.75;;;;;;;;;;4919090;29;20035;-80
2023/12/12 12:23:53;;;;;;;2.10;1.10;;;;;;;;;;4914054;29;20091;-80
2023/12/12 12:26:21;;;;;;;2.53;1.20;;;;;;;;;;4915070;29;20123;-80
2023/12/12 12:28:47;;;;;;;2.30;1.13;;;;;;;;;;4913348;29;20027;-80
2023/12/12 12:31:12;;;;;;;2.70;1.00;;;;;;;;;;4928923;29;20480;-80
2023/12/12 12:33:38;;;;;;;1.63;0.95;;;;;;;;;;4913278;29;20032;-80
2023/12/12 12:36:04;;;;;;;4.63;1.08;;;;;;;;;;4912992;29;20012;-80
2023/12/12 12:38:31;;;;;;;2.20;0.80;;;;;;;;;;4929725;29;20500;-80
2023/12/12 12:40:56;;;;;;;3.78;1.05;;;;;;;;;;4914029;29;20096;-80
2023/12/12 12:43:22;;;;;;;2.13;0.77;;;;;;;;;;4917454;29;20063;-80
2023/12/12 12:45:48;;;;;;;1.65;0.68;;;;;;;;;;4915526;29;20420;-80
2023/12/12 12:48:17;;;;;;;3.83;1.10;;;;;;;;;;4927831;29;20031;-80
2023/12/12 12:50:44;;;;;;;1.25;0.80;;;;;;;;;;4922384;29;20032;-80
2023/12/12 12:53:09;;;;;;;7.78;1.15;;;;;;;;;;4918397;29;20024;-80
2023/12/12 12:55:35;;;;;;;2.70;1.27;;;;;;;;;;4915069;29;20083;-80
2023/12/12 12:58:00;;;;;;;2.35;0.90;;;;;;;;;;4915639;29;20035;-80
2023/12/12 13:00:26;;;;;;;2.40;1.05;;;;;;;;;;4915321;29;20399;-80
2023/12/12 13:02:51;;;;;;;2.22;0.93;;;;;;;;;;4915611;29;20016;-80
2023/12/12 13:05:17;;;;;;;1.95;0.95;;;;;;;;;;4913657;29;20031;-79
2023/12/12 13:07:43;;;;;;;2.33;1.40;;;;;;;;;;4913154;29;20562;-80
2023/12/12 13:10:10;;;;;;;4.38;1.48;;;;;;;;;;4918184;29;20063;-79
2023/12/12 13:12:35;;;;;;;2.35;0.77;;;;;;;;;;4923297;29;20362;-79
2023/12/12 13:15:01;;;;;;;2.90;1.02;;;;;;;;;;4928222;29;20016;-79
2023/12/12 13:17:26;;;;;;;6.47;2.58;;;;;;;;;;4916101;29;20078;-79
2023/12/12 13:19:51;;;;;;;2.72;1.50;;;;;;;;;;4922827;29;20012;-79
2023/12/12 13:22:16;;;;;;;3.60;1.77;;;;;;;;;;4916115;29;20020;-78
2023/12/12 13:24:42;;;;;;;3.75;1.77;;;;;;;;;;4920174;29;20328;-79
2023/12/12 13:27:07;;;;;;;1.75;1.05;;;;;;;;;;4922886;29;20349;-79
2023/12/12 13:29:32;;;;;;;2.75;1.65;;;;;;;;;;4920730;29;20344;-79
2023/12/12 13:31:57;;;;;;;2.60;1.38;;;;;;;;;;4914047;29;20056;-79
2023/12/12 13:34:23;;;;;;;1.88;1.17;;;;;;;;;;4913047;29;20028;-79
2023/12/12 13:36:48;;;;;;;2.83;1.63;;;;;;;;;;4916791;29;20031;-79
2023/12/12 13:39:13;;;;;;;2.25;1.30;;;;;;;;;;4917737;29;20020;-78
2023/12/12 13:41:39;;;;;;;4.25;1.60;;;;;;;;;;4919556;29;20027;-80
2023/12/12 13:44:05;;;;;;;3.58;1.42;;;;;;;;;;4913382;29;20112;-79
2023/12/12 13:46:30;;;;;;;3.63;1.50;;;;;;;;;;4933512;29;20031;-79
2023/12/12 13:48:55;;;;;;;3.13;1.58;;;;;;;;;;4910667;29;20024;-79
2023/12/12 13:51:21;;;;;;;2.30;1.38;;;;;;;;;;4918935;29;20051;-80
2023/12/12 13:53:46;;;;;;;2.75;1.17;;;;;;;;;;4919404;29;20388;-79
2023/12/12 13:56:12;;;;;;;3.03;1.42;;;;;;;;;;4925082;29;20032;-79
2023/12/12 13:58:37;;;;;;;2.67;1.63;;;;;;;;;;4925323;29;20055;-79
2023/12/12 14:01:02;;;;;;;2.67;1.35;;;;;;;;;;4919282;29;20027;-79
2023/12/12 14:03:28;;;;;;;3.47;1.92;;;;;;;;;;4921173;29;20119;-80
2023/12/12 14:05:53;;;;;;;6.15;1.58;;;;;;;;;;4921249;29;20035;-79
2023/12/12 14:08:18;;;;;;;2.83;1.40;;;;;;;;;;4921088;29;20021;-79
2023/12/12 14:10:43;;;;;;;3.03;1.33;;;;;;;;;;4919287;29;20484;-80
2023/12/12 14:13:09;;;;;;;2.35;1.25;;;;;;;;;;4919214;29;20400;-80
2023/12/12 14:15:34;;;;;;;2.70;1.30;;;;;;;;;;4920928;29;20020;-80
2023/12/12 14:17:59;;;;;;;3.92;1.30;;;;;;;;;;4917944;29;20031;-80
2023/12/12 14:20:26;;;;;;;5.20;1.42;;;;;;;;;;4919711;29;20027;-81
2023/12/12 14:22:51;;;;;;;2.25;1.42;;;;;;;;;;4923564;29;20028;-79
2023/12/12 14:25:17;;;;;;;3.33;1.25;;;;;;;;;;4920082;29;20039;-79
2023/12/12 14:27:42;;;;;;;4.05;1.45;;;;;;;;;;4913727;29;20044;-79
2023/12/12 14:30:08;;;;;;;2.33;1.17;;;;;;;;;;4914785;29;20031;-79
2023/12/12 14:32:33;;;;;;;3.20;1.35;;;;;;;;;;4931407;29;20055;-79
2023/12/12 14:34:59;;;;;;;2.17;1.35;;;;;;;;;;4916269;29;20016;-79
2023/12/12 14:37:24;;;;;;;2.63;1.50;;;;;;;;;;4914638;29;20080;-79
2023/12/12 14:39:49;;;;;;;3.55;1.58;;;;;;;;;;4916174;29;20031;-79
2023/12/12 14:42:16;;;;;;;2.20;1.23;;;;;;;;;;4915164;29;20376;-79
2023/12/12 14:44:45;;;;;;;3.03;1.92;;;;;;;;;;4916390;29;20024;-79
2023/12/12 14:47:10;;;;;;;3.88;1.45;;;;;;;;;;4909976;29;20167;-78
2023/12/12 14:49:35;;;;;;;4.30;1.73;;;;;;;;;;4916354;29;20118;-79
2023/12/12 14:52:01;;;;;;;5.93;1.90;;;;;;;;;;4916309;29;20044;-79
2023/12/12 14:54:27;;;;;;;3.60;2.17;;;;;;;;;;4914686;29;20115;-79
2023/12/12 14:56:52;;;;;;;5.90;2.72;;;;;;;;;;4915951;29;20459;-79
2023/12/12 14:59:17;;;;;;;5.18;2.42;;;;;;;;;;4914174;29;20023;-79
2023/12/12 15:01:42;;;;;;;3.90;1.80;;;;;;;;;;4915441;29;20028;-79
2023/12/12 15:04:08;;;;;;;2.95;1.83;;;;;;;;;;4914608;29;20036;-79
2023/12/12 15:06:33;;;;;;;5.75;1.70;;;;;;;;;;4917003;29;20052;-78
2023/12/12 15:08:59;;;;;;;6.25;3.03;;;;;;;;;;4919366;29;20031;-79
2023/12/12 15:11:24;;;;;;;23.50;8.45;;;;;;;;;;4922676;29;20051;-79
2023/12/12 15:13:49;;;;;;;13.55;5.38;;;;;;;;;;4916301;29;20070;-79
2023/12/12 15:16:15;;;;;;;7.70;3.70;;;;;;;;;;4920079;29;20024;-78
2023/12/12 15:18:40;;;;;;;10.70;3.53;;;;;;;;;;4916341;29;20054;-79
2023/12/12 15:21:09;;;;;;;8.70;3.40;;;;;;;;;;4923336;29;20119;-78
2023/12/12 15:23:34;;;;;;;5.65;3.10;;;;;;;;;;4917703;29;20364;-79
2023/12/12 15:25:59;;;;;;;7.45;3.85;;;;;;;;;;4914881;29;20055;-80
2023/12/12 15:28:24;;;;;;;2.78;1.88;;;;;;;;;;4929457;29;20030;-80
2023/12/12 15:30:50;;;;;;;4.53;2.60;;;;;;;;;;4913489;29;20096;-79
2023/12/12 15:33:15;;;;;;;4.13;2.15;;;;;;;;;;4920534;29;20155;-80
2023/12/12 15:35:41;;;;;;;7.47;2.97;;;;;;;;;;4925433;29;20040;-80
2023/12/12 15:38:06;;;;;;;4.68;2.88;;;;;;;;;;4920729;29;20024;-80
2023/12/12 15:40:31;;;;;;;8.88;3.40;;;;;;;;;;4920750;29;20012;-80
2023/12/12 15:42:57;;;;;;;5.32;3.20;;;;;;;;;;4899947;29;20031;-80
2023/12/12 15:45:22;;;;;;;5.88;2.75;;;;;;;;;;4915038;29;20115;-80
2023/12/12 15:47:47;;;;;;;5.82;3.08;;;;;;;;;;4916259;29;20119;-80
2023/12/12 15:50:12;;;;;;;6.53;3.72;;;;;;;;;;4913144;29;20047;-80
2023/12/12 15:52:38;;;;;;;5.15;3.25;;;;;;;;;;4919190;29;20024;-81
2023/12/12 15:55:03;;;;;;;5.20;2.95;;;;;;;;;;4917232;29;20023;-80
2023/12/12 15:57:28;;;;;;;5.35;3.05;;;;;;;;;;4933034;29;20024;-80
2023/12/12 15:59:54;;;;;;;5.55;3.22;;;;;;;;;;4914850;29;20020;-80
2023/12/12 16:02:20;;;;;;;7.38;3.20;;;;;;;;;;4918110;29;20031;-80
2023/12/12 16:04:45;;;;;;;6.10;3.25;;;;;;;;;;4923286;29;20502;-80
2023/12/12 16:07:10;;;;;;;4.65;2.40;;;;;;;;;;4913782;29;20039;-81
2023/12/12 16:09:36;;;;;;;4.35;2.30;;;;;;;;;;4914402;29;20024;-80
2023/12/12 16:12:01;;;;;;;4.20;2.25;;;;;;;;;;4907154;29;20035;-81
2023/12/12 16:14:28;;;;;;;4.32;2.00;;;;;;;;;;4909748;29;20071;-81
2023/12/12 16:16:54;;;;;;;7.78;2.55;;;;;;;;;;4904951;29;20120;-80
2023/12/12 16:19:21;;;;;;;6.25;3.60;;;;;;;;;;4915426;29;20082;-81
2023/12/12 16:21:46;;;;;;;6.80;2.72;;;;;;;;;;4927285;29;20020;-81
2023/12/12 16:24:11;;;;;;;5.75;3.20;;;;;;;;;;4930304;29;20028;-81
2023/12/12 16:26:36;;;;;;;4.95;3.00;;;;;;;;;;4928920;29;20102;-81
2023/12/12 16:29:03;;;;;;;5.30;3.03;;;;;;;;;;4927216;29;20035;-81
2023/12/12 16:31:28;;;;;;;6.25;3.80;;;;;;;;;;4930790;29;20104;-81
2023/12/12 16:33:53;;;;;;;7.25;3.47;;;;;;;;;;4929271;29;20360;-80
2023/12/12 16:36:21;;;;;;;8.18;3.72;;;;;;;;;;4928831;29;20016;-80
2023/12/12 16:38:47;;;;;;;6.25;3.60;;;;;;;;;;4928739;29;20059;-81
2023/12/12 16:41:12;;;;;;;6.22;3.03;;;;;;;;;;4930453;29;20028;-82
2023/12/12 16:43:37;;;;;;;8.13;4.10;;;;;;;;;;4927680;29;20043;-81
2023/12/12 16:46:02;;;;;;;6.45;3.65;;;;;;;;;;4912901;29;20084;-80
2023/12/12 16:48:28;;;;;;;10.57;3.40;;;;;;;;;;4917976;29;20131;-80
2023/12/12 16:50:55;;;;;;;5.22;1.67;;;;;;;;;;4920201;29;20047;-80
2023/12/12 16:53:20;;;;;;;5.03;1.92;;;;;;;;;;4932034;29;20464;-80
2023/12/12 16:55:45;;;;;;;2.97;1.58;;;;;;;;;;4917346;29;20046;-81
2023/12/12 16:58:11;;;;;;;2.33;1.20;;;;;;;;;;4916918;29;20247;-80
2023/12/12 17:00:37;;;;;;;2.75;1.25;;;;;;;;;;4917221;29;20016;-80
2023/12/12 17:03:03;;;;;;;5.18;1.63;;;;;;;;;;4931237;29;20050;-80
2023/12/12 17:05:28;;;;;;;2.45;1.17;;;;;;;;;;4921416;29;20463;-80
2023/12/12 17:07:54;;;;;;;4.47;1.80;;;;;;;;;;4918512;29;20039;-80
2023/12/12 17:10:20;;;;;;;4.40;1.70;;;;;;;;;;4931921;29;20032;-81
2023/12/12 17:12:45;;;;;;;3.75;1.80;;;;;;;;;;4917043;29;20035;-80
2023/12/12 17:15:11;;;;;;;6.63;2.08;;;;;;;;;;4911018;29;20036;-80
2023/12/12 17:17:37;;;;;;;8.07;2.25;;;;;;;;;;4922656;29;20486;-80
2023/12/12 17:20:03;;;;;;;3.17;1.70;;;;;;;;;;4903291;29;20064;-80
2023/12/12 17:22:28;;;;;;;5.18;2.40;;;;;;;;;;4916958;29;20028;-80
2023/12/12 17:24:53;;;;;;;3.58;2.53;;;;;;;;;;4900487;29;20456;-80
2023/12/12 17:27:19;;;;;;;5.68;2.55;;;;;;;;;;4924629;29;20042;-78
2023/12/12 17:29:44;;;;;;;6.32;2.90;;;;;;;;;;4912261;29;20034;-78
2023/12/12 17:32:11;;;;;;;7.57;3.08;;;;;;;;;;4929727;29;20027;-78
2023/12/12 17:34:42;;;;;;;7.60;3.03;;;;;;;;;;4916377;29;20043;-78
2023/12/12 17:37:08;;;;;;;5.53;2.85;;;;;;;;;;4913608;29;20024;-78
2023/12/12 17:39:33;;;;;;;5.32;2.58;;;;;;;;;;4916242;29;20475;-78
2023/12/12 17:41:58;;;;;;;5.70;2.70;;;;;;;;;;4917437;29;20159;-78
2023/12/12 17:44:24;;;;;;;5.70;2.53;;;;;;;;;;4912263;29;20420;-78
2023/12/12 17:46:49;;;;;;;7.68;2.40;;;;;;;;;;4917633;29;20325;-78
2023/12/12 17:49:14;;;;;;;8.80;2.33;;;;;;;;;;4916062;29;20428;-78
2023/12/12 17:51:39;;;;;;;5.80;2.42;;;;;;;;;;4915477;29;20024;-77
2023/12/12 17:54:04;;;;;;;7.25;2.70;;;;;;;;;;4917464;29;20032;-77
2023/12/12 17:56:30;;;;;;;7.47;2.72;;;;;;;;;;4917431;29;20090;-77
2023/12/12 17:58:58;;;;;;;7.03;3.10;;;;;;;;;;4916161;29;20020;-78
2023/12/12 18:01:23;;;;;;;6.15;3.22;;;;;;;;;;4931458;29;20040;-78
2023/12/12 18:03:49;;;;;;;9.60;3.30;;;;;;;;;;4913615;29;20055;-81
2023/12/12 18:06:15;;;;;;;7.43;2.67;;;;;;;;;;4925591;29;20032;-80
2023/12/12 18:08:41;;;;;;;3.65;1.95;;;;;;;;;;4914863;29;20460;-81
2023/12/12 18:11:07;;;;;;;6.47;2.72;;;;;;;;;;4915103;29;20557;-80
2023/12/12 18:13:32;;;;;;;4.97;1.77;;;;;;;;;;4902633;29;20346;-81
2023/12/12 18:15:57;;;;;;;4.65;1.70;;;;;;;;;;4928019;29;20081;-81
2023/12/12 18:18:23;;;;;;;7.95;1.95;;;;;;;;;;4909762;29;20490;-80
2023/12/12 18:20:50;;;;;;;5.85;2.70;;;;;;;;;;4916209;29;20071;-81
2023/12/12 18:23:15;;;;;;;8.70;2.78;;;;;;;;;;4913482;29;20172;-81
2023/12/12 18:25:42;;;;;;;8.90;2.38;;;;;;;;;;4915843;29;20114;-81
2023/12/12 18:28:08;;;;;;;4.43;1.75;;;;;;;;;;4916065;29;20020;-80
2023/12/12 18:30:36;;;;;;;8.73;2.22;;;;;;;;;;4915367;29;20069;-81
2023/12/12 18:33:02;;;;;;;5.55;2.35;;;;;;;;;;4911892;29;20086;-80
2023/12/12 18:35:27;;;;;;;5.97;2.25;;;;;;;;;;4912083;29;20111;-81
2023/12/12 18:37:52;;;;;;;11.50;3.78;;;;;;;;;;4914912;29;20386;-81
2023/12/12 18:40:17;;;;;;;9.85;2.20;;;;;;;;;;4906339;29;20032;-81
2023/12/12 18:42:43;;;;;;;8.27;2.13;;;;;;;;;;4915131;29;20028;-80
2023/12/12 18:45:09;;;;;;;7.13;2.33;;;;;;;;;;4914940;29;20034;-81
2023/12/12 18:47:34;;;;;;;3.28;1.75;;;;;;;;;;4912005;29;20032;-81
2023/12/12 18:49:59;;;;;;;10.05;1.95;;;;;;;;;;4913614;29;20028;-80
2023/12/12 18:52:24;;;;;;;9.52;2.00;;;;;;;;;;4913574;29;20036;-80
2023/12/12 18:54:50;;;;;;;6.15;1.52;;;;;;;;;;4916924;29;20083;-81
2023/12/12 18:57:15;;;;;;;9.30;2.10;;;;;;;;;;4913482;29;20021;-81
2023/12/12 18:59:40;;;;;;;13.93;2.40;;;;;;;;;;4929553;29;20114;-81
2023/12/12 19:02:06;;;;;;;13.55;2.90;;;;;;;;;;4913504;29;20092;-81
2023/12/12 19:04:31;;;;;;;3.67;1.65;;;;;;;;;;4915282;29;20035;-78
2023/12/12 19:07:00;;;;;;;13.77;2.75;;;;;;;;;;4914114;29;20044;-78
2023/12/12 19:09:25;;;;;;;13.98;2.08;;;;;;;;;;4915607;29;20359;-78
2023/12/12 19:11:51;;;;;;;7.43;2.17;;;;;;;;;;4915460;29;20019;-77
2023/12/12 19:14:17;;;;;;;8.05;1.92;;;;;;;;;;4913812;29;20162;-78
2023/12/12 19:16:42;;;;;;;10.23;2.53;;;;;;;;;;4914154;29;20038;-77
2023/12/12 19:19:07;;;;;;;19.38;2.78;;;;;;;;;;4915625;29;20114;-77
2023/12/12 19:21:32;;;;;;;6.13;2.22;;;;;;;;;;4914207;29;20052;-78
2023/12/12 19:23:58;;;;;;;4.72;1.52;;;;;;;;;;4914048;29;20023;-77
2023/12/12 19:26:23;;;;;;;12.52;2.30;;;;;;;;;;4914472;29;20047;-78
2023/12/12 19:28:48;;;;;;;8.60;2.20;;;;;;;;;;4926493;29;20036;-78
2023/12/12 19:31:13;;;;;;;11.68;2.22;;;;;;;;;;4909317;29;20476;-78
2023/12/12 19:33:39;;;;;;;17.98;4.95;;;;;;;;;;4914175;29;20111;-78
2023/12/12 19:36:04;;;;;;;10.13;3.17;;;;;;;;;;4915451;29;20095;-77
2023/12/12 19:38:31;;;;;;;14.68;2.88;;;;;;;;;;4915192;29;20024;-77
2023/12/12 19:40:57;;;;;;;11.90;3.17;;;;;;;;;;4915918;29;20048;-77
2023/12/12 19:43:22;;;;;;;12.13;4.00;;;;;;;;;;4913864;29;20051;-80
2023/12/12 19:45:47;;;;;;;11.65;3.35;;;;;;;;;;4924026;29;20035;-80
2023/12/12 19:48:12;;;;;;;6.00;2.28;;;;;;;;;;4912745;29;20460;-80
2023/12/12 19:50:38;;;;;;;10.05;2.42;;;;;;;;;;4925461;29;20460;-80
2023/12/12 19:53:04;;;;;;;14.95;2.55;;;;;;;;;;4910889;29;20096;-78
2023/12/12 19:55:30;;;;;;;6.80;2.20;;;;;;;;;;4920432;29;20395;-77
2023/12/12 19:57:55;;;;;;;10.25;2.22;;;;;;;;;;4930417;29;20024;-78
2023/12/12 20:00:20;;;;;;;8.95;1.90;;;;;;;;;;4917979;29;20225;-77
2023/12/12 20:02:46;;;;;;;12.27;2.63;;;;;;;;;;4917904;29;20035;-78
2023/12/12 20:05:11;;;;;;;6.13;1.48;;;;;;;;;;4915153;29;20040;-78
2023/12/12 20:07:37;;;;;;;18.13;1.73;;;;;;;;;;4919347;29;20084;-77
2023/12/12 20:10:02;;;;;;;6.53;2.10;;;;;;;;;;4919503;29;20059;-77
2023/12/12 20:12:28;;;;;;;8.45;1.60;;;;;;;;;;4918036;29;20051;-78
2023/12/12 20:14:53;;;;;;;6.28;1.65;;;;;;;;;;4917746;29;20066;-78
2023/12/12 20:17:18;;;;;;;11.20;1.60;;;;;;;;;;4914097;29;20036;-78
2023/12/12 20:19:44;;;;;;;7.35;1.98;;;;;;;;;;4923481;29;20500;-80
2023/12/12 20:22:09;;;;;;;5.55;1.90;;;;;;;;;;4920159;29;20456;-81
2023/12/12 20:24:35;;;;;;;6.20;1.67;;;;;;;;;;4918039;29;20091;-81
2023/12/12 20:27:00;;;;;;;6.78;1.50;;;;;;;;;;4919439;29;20496;-81
2023/12/12 20:29:25;;;;;;;3.38;1.33;;;;;;;;;;4920996;29;20036;-81
2023/12/12 20:31:51;;;;;;;3.17;0.98;;;;;;;;;;4921099;29;20095;-80
2023/12/12 20:34:16;;;;;;;10.60;2.67;;;;;;;;;;4915819;29;20118;-80